sensor_id;sensor_type;location;lat;lon;timestamp;pressure;altitude;pressure_sealevel;temperature;humidity
42289;BME280;30230;47.520;19.016;2023-01-29T00:00:36;99736.63;;;0.74;90.21
42289;BME280;30230;47.520;19.016;2023-01-29T00:02:36;99734.59;;;0.66;90.54
42289;BME280;30230;47.520;19.016;2023-01-29T00:04:37;99732.75;;;0.67;90.53
42289;BME280;30230;47.520;19.016;2023-01-29T00:06:37;99732.44;;;0.60;91.54
42289;BME280;30230;47.520;19.016;2023-01-29T00:08:38;99734.13;;;0.61;91.51
42289;BME280;30230;47.520;19.016;2023-01-29T00:10:39;99733.81;;;0.55;91.56
42289;BME280;30230;47.520;19.016;2023-01-29T00:12:39;99740.47;;;0.49;92.62
42289;BME280;30230;47.520;19.016;2023-01-29T00:14:40;99747.34;;;0.51;92.54
42289;BME280;30230;47.520;19.016;2023-01-29T00:16:40;99744.97;;;0.48;92.36
42289;BME280;30230;47.520;19.016;2023-01-29T00:18:41;99744.34;;;0.45;92.65
42289;BME280;30230;47.520;19.016;2023-01-29T00:20:42;99752.19;;;0.46;93.07
42289;BME280;30230;47.520;19.016;2023-01-29T00:22:43;99751.72;;;0.41;92.77
42289;BME280;30230;47.520;19.016;2023-01-29T00:24:43;99749.34;;;0.38;93.25
42289;BME280;30230;47.520;19.016;2023-01-29T00:26:43;99751.88;;;0.40;93.22
42289;BME280;30230;47.520;19.016;2023-01-29T00:28:44;99758.88;;;0.41;93.21
42289;BME280;30230;47.520;19.016;2023-01-29T00:30:44;99754.78;;;0.37;93.75
42289;BME280;30230;47.520;19.016;2023-01-29T00:32:45;99747.78;;;0.36;93.68
42289;BME280;30230;47.520;19.016;2023-01-29T00:34:45;99754.47;;;0.51;93.08
42289;BME280;30230;47.520;19.016;2023-01-29T00:36:45;99758.09;;;0.50;92.91
42289;BME280;30230;47.520;19.016;2023-01-29T00:38:46;99757.03;;;0.52;92.55
42289;BME280;30230;47.520;19.016;2023-01-29T00:40:53;99764.88;;;0.54;92.94
42289;BME280;30230;47.520;19.016;2023-01-29T00:43:12;99760.72;;;0.61;91.61
42289;BME280;30230;47.520;19.016;2023-01-29T00:45:33;99762.53;;;0.61;91.43
42289;BME280;30230;47.520;19.016;2023-01-29T00:47:36;99761.56;;;0.62;91.21
42289;BME280;30230;47.520;19.016;2023-01-29T00:49:36;99760.47;;;0.64;91.51
42289;BME280;30230;47.520;19.016;2023-01-29T00:51:37;99767.13;;;0.59;91.19
42289;BME280;30230;47.520;19.016;2023-01-29T00:53:38;99770.69;;;0.48;92.39
42289;BME280;30230;47.520;19.016;2023-01-29T00:55:38;99755.72;;;0.47;92.37
42289;BME280;30230;47.520;19.016;2023-01-29T00:57:39;99763.63;;;0.58;91.38
42289;BME280;30230;47.520;19.016;2023-01-29T00:59:39;99760.38;;;0.55;91.40
42289;BME280;30230;47.520;19.016;2023-01-29T01:01:39;99753.53;;;0.41;91.12
42289;BME280;30230;47.520;19.016;2023-01-29T01:03:58;99768.13;;;0.46;91.14
42289;BME280;30230;47.520;19.016;2023-01-29T01:06:06;99766.91;;;0.50;89.92
42289;BME280;30230;47.520;19.016;2023-01-29T01:08:07;99760.56;;;0.42;90.77
42289;BME280;30230;47.520;19.016;2023-01-29T01:10:29;99763.97;;;0.33;91.19
42289;BME280;30230;47.520;19.016;2023-01-29T01:12:30;99761.69;;;0.28;92.22
42289;BME280;30230;47.520;19.016;2023-01-29T01:14:32;99764.03;;;0.21;92.55
42289;BME280;30230;47.520;19.016;2023-01-29T01:16:35;99761.38;;;0.10;93.40
42289;BME280;30230;47.520;19.016;2023-01-29T01:18:35;99766.81;;;0.09;92.97
42289;BME280;30230;47.520;19.016;2023-01-29T01:20:37;99770.34;;;-0.02;94.39
42289;BME280;30230;47.520;19.016;2023-01-29T01:22:39;99776.88;;;-0.06;94.24
42289;BME280;30230;47.520;19.016;2023-01-29T01:24:40;99768.44;;;-0.11;95.48
42289;BME280;30230;47.520;19.016;2023-01-29T01:26:40;99769.28;;;-0.11;95.39
42289;BME280;30230;47.520;19.016;2023-01-29T01:28:41;99765.31;;;-0.05;94.26
42289;BME280;30230;47.520;19.016;2023-01-29T01:30:41;99770.22;;;-0.01;94.23
42289;BME280;30230;47.520;19.016;2023-01-29T01:32:42;99778.56;;;0.06;94.46
42289;BME280;30230;47.520;19.016;2023-01-29T01:34:42;99772.78;;;0.01;94.22
42289;BME280;30230;47.520;19.016;2023-01-29T01:36:44;99778.91;;;0.02;94.71
42289;BME280;30230;47.520;19.016;2023-01-29T01:38:44;99769.28;;;-0.11;94.49
42289;BME280;30230;47.520;19.016;2023-01-29T01:40:45;99778.78;;;0.03;94.65
42289;BME280;30230;47.520;19.016;2023-01-29T01:42:51;99782.56;;;0.01;94.44
42289;BME280;30230;47.520;19.016;2023-01-29T01:45:00;99778.44;;;-0.04;94.37
42289;BME280;30230;47.520;19.016;2023-01-29T01:47:03;99768.91;;;-0.06;94.22
42289;BME280;30230;47.520;19.016;2023-01-29T01:49:10;99782.19;;;-0.06;94.22
42289;BME280;30230;47.520;19.016;2023-01-29T01:51:15;99781.22;;;0.06;92.76
42289;BME280;30230;47.520;19.016;2023-01-29T01:53:21;99784.84;;;-0.06;92.65
42289;BME280;30230;47.520;19.016;2023-01-29T01:55:25;99785.56;;;-0.04;93.53
42289;BME280;30230;47.520;19.016;2023-01-29T01:57:27;99778.69;;;-0.07;93.57
42289;BME280;30230;47.520;19.016;2023-01-29T01:59:31;99780.28;;;-0.15;94.08
42289;BME280;30230;47.520;19.016;2023-01-29T02:01:33;99780.50;;;-0.07;93.32
42289;BME280;30230;47.520;19.016;2023-01-29T02:03:37;99778.22;;;-0.12;93.69
42289;BME280;30230;47.520;19.016;2023-01-29T02:05:59;99774.88;;;-0.25;93.31
42289;BME280;30230;47.520;19.016;2023-01-29T02:08:40;99782.47;;;-0.20;93.91
42289;BME280;30230;47.520;19.016;2023-01-29T02:11:00;99778.34;;;-0.24;94.19
42289;BME280;30230;47.520;19.016;2023-01-29T02:13:01;99785.34;;;-0.23;94.01
42289;BME280;30230;47.520;19.016;2023-01-29T02:15:02;99796.09;;;-0.14;93.78
42289;BME280;30230;47.520;19.016;2023-01-29T02:17:03;99797.63;;;-0.11;94.06
42289;BME280;30230;47.520;19.016;2023-01-29T02:19:10;99798.88;;;-0.15;93.61
42289;BME280;30230;47.520;19.016;2023-01-29T02:23:51;99800.41;;;-0.13;92.98
42289;BME280;30230;47.520;19.016;2023-01-29T02:33:50;99804.44;;;-0.41;94.76
42289;BME280;30230;47.520;19.016;2023-01-29T02:36:07;99812.25;;;-0.39;94.17
42289;BME280;30230;47.520;19.016;2023-01-29T02:40:41;99805.63;;;-0.45;94.74
42289;BME280;30230;47.520;19.016;2023-01-29T02:42:52;99812.13;;;-0.38;95.13
42289;BME280;30230;47.520;19.016;2023-01-29T02:45:09;99815.63;;;-0.37;94.43
42289;BME280;30230;47.520;19.016;2023-01-29T02:47:32;99819.13;;;-0.37;94.81
42289;BME280;30230;47.520;19.016;2023-01-29T02:49:36;99821.28;;;-0.42;95.51
42289;BME280;30230;47.520;19.016;2023-01-29T02:51:48;99813.94;;;-0.49;95.78
42289;BME280;30230;47.520;19.016;2023-01-29T02:54:09;99829.03;;;-0.39;96.20
42289;BME280;30230;47.520;19.016;2023-01-29T02:56:16;99828.91;;;-0.48;96.74
42289;BME280;30230;47.520;19.016;2023-01-29T03:00:40;99829.25;;;-0.42;96.64
42289;BME280;30230;47.520;19.016;2023-01-29T03:02:47;99829.75;;;-0.37;96.53
42289;BME280;30230;47.520;19.016;2023-01-29T03:04:53;99826.25;;;-0.37;97.26
42289;BME280;30230;47.520;19.016;2023-01-29T03:07:01;99828.81;;;-0.36;96.61
42289;BME280;30230;47.520;19.016;2023-01-29T03:09:28;99830.13;;;-0.30;95.86
42289;BME280;30230;47.520;19.016;2023-01-29T03:11:37;99832.41;;;-0.37;95.67
42289;BME280;30230;47.520;19.016;2023-01-29T03:15:48;99831.19;;;-0.33;95.50
42289;BME280;30230;47.520;19.016;2023-01-29T03:17:54;99831.19;;;-0.33;95.48
42289;BME280;30230;47.520;19.016;2023-01-29T03:19:57;99831.44;;;-0.24;95.41
42289;BME280;30230;47.520;19.016;2023-01-29T03:21:58;99829.16;;;-0.29;95.50
42289;BME280;30230;47.520;19.016;2023-01-29T03:24:00;99836.63;;;-0.23;95.36
42289;BME280;30230;47.520;19.016;2023-01-29T03:26:21;99829.88;;;-0.38;95.79
42289;BME280;30230;47.520;19.016;2023-01-29T03:28:41;99832.03;;;-0.32;96.12
42289;BME280;30230;47.520;19.016;2023-01-29T03:31:05;99836.38;;;-0.31;96.54
42289;BME280;30230;47.520;19.016;2023-01-29T03:33:25;99843.41;;;-0.30;96.49
42289;BME280;30230;47.520;19.016;2023-01-29T03:35:27;99838.31;;;-0.22;96.34
42289;BME280;30230;47.520;19.016;2023-01-29T03:37:43;99840.38;;;-0.25;95.27
42289;BME280;30230;47.520;19.016;2023-01-29T03:39:45;99843.41;;;-0.19;95.88
42289;BME280;30230;47.520;19.016;2023-01-29T03:41:52;99844.34;;;0.03;93.65
42289;BME280;30230;47.520;19.016;2023-01-29T03:46:12;99834.31;;;-0.16;94.12
42289;BME280;30230;47.520;19.016;2023-01-29T03:56:19;99846.88;;;-0.18;93.56
42289;BME280;30230;47.520;19.016;2023-01-29T03:58:02;99840.13;;;0.00;92.57
42289;BME280;30230;47.520;19.016;2023-01-29T04:00:18;99844.84;;;-0.04;92.02
42289;BME280;30230;47.520;19.016;2023-01-29T04:02:34;99844.97;;;-0.05;92.20
42289;BME280;30230;47.520;19.016;2023-01-29T04:04:43;99839.66;;;-0.05;91.81
42289;BME280;30230;47.520;19.016;2023-01-29T04:06:48;99840.38;;;-0.03;92.62
42289;BME280;30230;47.520;19.016;2023-01-29T04:08:56;99838.22;;;-0.09;91.94
42289;BME280;30230;47.520;19.016;2023-01-29T04:10:59;99827.59;;;-0.09;91.95
42289;BME280;30230;47.520;19.016;2023-01-29T04:13:05;99839.88;;;-0.08;92.06
42289;BME280;30230;47.520;19.016;2023-01-29T04:15:10;99846.66;;;-0.15;91.91
42289;BME280;30230;47.520;19.016;2023-01-29T04:17:23;99846.53;;;-0.03;92.94
42289;BME280;30230;47.520;19.016;2023-01-29T04:19:27;99848.22;;;-0.13;91.86
42289;BME280;30230;47.520;19.016;2023-01-29T04:21:28;99844.34;;;-0.09;91.75
42289;BME280;30230;47.520;19.016;2023-01-29T04:23:30;99848.56;;;-0.06;92.12
42289;BME280;30230;47.520;19.016;2023-01-29T04:25:42;99845.56;;;-0.13;92.74
42289;BME280;30230;47.520;19.016;2023-01-29T04:27:56;99833.59;;;-0.07;91.91
42289;BME280;30230;47.520;19.016;2023-01-29T04:32:31;99836.03;;;-0.04;91.24
42289;BME280;30230;47.520;19.016;2023-01-29T04:37:03;99838.69;;;-0.04;92.44
42289;BME280;30230;47.520;19.016;2023-01-29T04:42:11;99840.00;;;0.02;91.01
42289;BME280;30230;47.520;19.016;2023-01-29T04:53:24;99839.25;;;-0.01;91.60
42289;BME280;30230;47.520;19.016;2023-01-29T04:55:39;99847.63;;;-0.05;89.94
42289;BME280;30230;47.520;19.016;2023-01-29T04:57:52;99849.31;;;-0.04;91.00
42289;BME280;30230;47.520;19.016;2023-01-29T05:00:06;99844.22;;;-0.07;91.00
42289;BME280;30230;47.520;19.016;2023-01-29T05:02:10;99837.38;;;-0.10;91.54
42289;BME280;30230;47.520;19.016;2023-01-29T05:04:13;99835.66;;;0.01;89.65
42289;BME280;30230;47.520;19.016;2023-01-29T05:06:17;99841.91;;;-0.01;90.45
42289;BME280;30230;47.520;19.016;2023-01-29T05:08:20;99834.31;;;-0.16;89.99
42289;BME280;30230;47.520;19.016;2023-01-29T05:10:23;99833.97;;;-0.12;89.26
42289;BME280;30230;47.520;19.016;2023-01-29T05:12:25;99843.75;;;-0.23;90.98
42289;BME280;30230;47.520;19.016;2023-01-29T05:14:29;99843.41;;;-0.19;91.44
42289;BME280;30230;47.520;19.016;2023-01-29T05:16:37;99847.59;;;-0.16;89.99
42289;BME280;30230;47.520;19.016;2023-01-29T05:18:41;99841.81;;;-0.21;90.61
42289;BME280;30230;47.520;19.016;2023-01-29T05:20:42;99839.50;;;-0.26;91.66
42289;BME280;30230;47.520;19.016;2023-01-29T05:22:43;99838.06;;;-0.08;90.31
42289;BME280;30230;47.520;19.016;2023-01-29T05:24:45;99829.28;;;-0.19;90.62
42289;BME280;30230;47.520;19.016;2023-01-29T05:26:47;99835.19;;;-0.05;89.85
42289;BME280;30230;47.520;19.016;2023-01-29T05:29:06;99831.78;;;0.05;88.54
42289;BME280;30230;47.520;19.016;2023-01-29T05:31:07;99829.50;;;0.00;88.70
42289;BME280;30230;47.520;19.016;2023-01-29T05:33:16;99838.41;;;-0.01;89.00
42289;BME280;30230;47.520;19.016;2023-01-29T05:35:17;99844.34;;;-0.09;89.71
42289;BME280;30230;47.520;19.016;2023-01-29T05:37:17;99835.06;;;-0.14;89.55
42289;BME280;30230;47.520;19.016;2023-01-29T05:39:18;99844.22;;;-0.07;89.53
42289;BME280;30230;47.520;19.016;2023-01-29T05:41:18;99842.91;;;-0.13;90.61
42289;BME280;30230;47.520;19.016;2023-01-29T05:43:22;99837.84;;;-0.05;90.68
42289;BME280;30230;47.520;19.016;2023-01-29T05:45:23;99844.84;;;-0.04;89.13
42289;BME280;30230;47.520;19.016;2023-01-29T05:47:23;99837.00;;;-0.05;88.94
42289;BME280;30230;47.520;19.016;2023-01-29T05:49:24;99841.69;;;-0.09;90.09
42289;BME280;30230;47.520;19.016;2023-01-29T05:51:24;99837.47;;;-0.11;90.16
42289;BME280;30230;47.520;19.016;2023-01-29T05:53:25;99836.25;;;-0.07;89.09
42289;BME280;30230;47.520;19.016;2023-01-29T05:55:26;99840.34;;;0.08;89.17
42289;BME280;30230;47.520;19.016;2023-01-29T05:57:28;99844.84;;;-0.04;89.11
42289;BME280;30230;47.520;19.016;2023-01-29T05:59:28;99847.22;;;-0.01;88.58
42289;BME280;30230;47.520;19.016;2023-01-29T06:01:30;99848.81;;;0.02;88.53
42289;BME280;30230;47.520;19.016;2023-01-29T06:03:30;99851.44;;;0.24;87.12
42289;BME280;30230;47.520;19.016;2023-01-29T06:05:31;99852.66;;;0.09;87.70
42289;BME280;30230;47.520;19.016;2023-01-29T06:07:31;99850.00;;;-0.02;89.10
42289;BME280;30230;47.520;19.016;2023-01-29T06:09:32;99855.31;;;-0.02;89.39
42289;BME280;30230;47.520;19.016;2023-01-29T06:11:32;99856.28;;;-0.03;89.30
42289;BME280;30230;47.520;19.016;2023-01-29T06:13:33;99840.97;;;-0.11;90.51
42289;BME280;30230;47.520;19.016;2023-01-29T06:15:33;99862.31;;;0.10;90.07
42289;BME280;30230;47.520;19.016;2023-01-29T06:17:33;99864.03;;;0.00;90.15
42289;BME280;30230;47.520;19.016;2023-01-29T06:19:34;99870.28;;;-0.01;90.07
42289;BME280;30230;47.520;19.016;2023-01-29T06:21:34;99868.59;;;-0.02;91.60
42289;BME280;30230;47.520;19.016;2023-01-29T06:23:35;99873.44;;;-0.07;91.54
42289;BME280;30230;47.520;19.016;2023-01-29T06:25:35;99879.22;;;-0.02;91.94
42289;BME280;30230;47.520;19.016;2023-01-29T06:27:36;99879.72;;;-0.08;92.55
42289;BME280;30230;47.520;19.016;2023-01-29T06:29:36;99887.19;;;0.09;93.35
42289;BME280;30230;47.520;19.016;2023-01-29T06:31:37;99897.34;;;-0.07;92.06
42289;BME280;30230;47.520;19.016;2023-01-29T06:33:37;99897.34;;;-0.07;92.87
42289;BME280;30230;47.520;19.016;2023-01-29T06:35:37;99899.84;;;-0.06;92.98
42289;BME280;30230;47.520;19.016;2023-01-29T06:37:38;99896.13;;;-0.03;92.26
42289;BME280;30230;47.520;19.016;2023-01-29T06:39:38;99897.47;;;-0.20;94.21
42289;BME280;30230;47.520;19.016;2023-01-29T06:41:39;99901.53;;;-0.27;94.20
42289;BME280;30230;47.520;19.016;2023-01-29T06:43:39;99913.75;;;-0.13;94.59
42289;BME280;30230;47.520;19.016;2023-01-29T06:46:00;99919.53;;;0.03;93.57
42289;BME280;30230;47.520;19.016;2023-01-29T06:48:00;99916.53;;;-0.04;92.51
42289;BME280;30230;47.520;19.016;2023-01-29T06:50:01;99921.50;;;-0.10;93.21
42289;BME280;30230;47.520;19.016;2023-01-29T06:52:01;99908.09;;;-0.20;93.83
42289;BME280;30230;47.520;19.016;2023-01-29T06:54:02;99918.94;;;-0.23;94.97
42289;BME280;30230;47.520;19.016;2023-01-29T06:56:03;99919.19;;;-0.15;94.50
42289;BME280;30230;47.520;19.016;2023-01-29T06:58:09;99911.66;;;-0.32;94.45
42289;BME280;30230;47.520;19.016;2023-01-29T07:00:10;99911.09;;;-0.24;94.67
42289;BME280;30230;47.520;19.016;2023-01-29T07:02:11;99911.09;;;-0.02;94.19
42289;BME280;30230;47.520;19.016;2023-01-29T07:04:12;99902.78;;;0.03;93.66
42289;BME280;30230;47.520;19.016;2023-01-29T07:06:12;99905.66;;;-0.12;94.06
42289;BME280;30230;47.520;19.016;2023-01-29T07:08:12;99910.88;;;-0.10;94.04
42289;BME280;30230;47.520;19.016;2023-01-29T07:10:13;99910.00;;;-0.22;94.30
42289;BME280;30230;47.520;19.016;2023-01-29T07:12:13;99910.25;;;-0.25;95.23
42289;BME280;30230;47.520;19.016;2023-01-29T07:14:14;99913.25;;;-0.18;93.90
42289;BME280;30230;47.520;19.016;2023-01-29T07:16:14;99911.19;;;-0.26;94.37
42289;BME280;30230;47.520;19.016;2023-01-29T07:18:15;99915.69;;;-0.15;94.10
42289;BME280;30230;47.520;19.016;2023-01-29T07:20:18;99903.34;;;-0.16;93.50
42289;BME280;30230;47.520;19.016;2023-01-29T07:22:18;99898.78;;;-0.25;93.30
42289;BME280;30230;47.520;19.016;2023-01-29T07:24:19;99902.91;;;-0.10;93.76
42289;BME280;30230;47.520;19.016;2023-01-29T07:26:19;99894.69;;;0.27;100.00
42289;BME280;30230;47.520;19.016;2023-01-29T07:28:20;99896.25;;;0.18;98.06
42289;BME280;30230;47.520;19.016;2023-01-29T07:30:21;99893.22;;;0.22;94.47
42289;BME280;30230;47.520;19.016;2023-01-29T07:32:21;99888.88;;;0.10;92.20
42289;BME280;30230;47.520;19.016;2023-01-29T07:34:21;99885.72;;;0.28;97.05
42289;BME280;30230;47.520;19.016;2023-01-29T07:36:22;99892.63;;;0.08;92.82
42289;BME280;30230;47.520;19.016;2023-01-29T07:38:23;99884.66;;;0.08;92.07
42289;BME280;30230;47.520;19.016;2023-01-29T07:40:23;99892.38;;;-0.01;91.10
42289;BME280;30230;47.520;19.016;2023-01-29T07:42:24;99883.22;;;-0.08;91.72
42289;BME280;30230;47.520;19.016;2023-01-29T07:44:24;99871.75;;;-0.31;92.79
42289;BME280;30230;47.520;19.016;2023-01-29T07:46:25;99858.72;;;-0.22;92.76
42289;BME280;30230;47.520;19.016;2023-01-29T07:48:25;99877.19;;;-0.10;92.24
42289;BME280;30230;47.520;19.016;2023-01-29T07:50:26;99874.03;;;-0.04;91.82
42289;BME280;30230;47.520;19.016;2023-01-29T07:52:28;99879.72;;;-0.08;90.84
42289;BME280;30230;47.520;19.016;2023-01-29T07:54:30;99896.72;;;-0.11;91.67
42289;BME280;30230;47.520;19.016;2023-01-29T07:56:30;99893.00;;;-0.08;91.55
42289;BME280;30230;47.520;19.016;2023-01-29T07:58:30;99883.84;;;-0.15;90.34
42289;BME280;30230;47.520;19.016;2023-01-29T08:00:31;99877.16;;;-0.21;91.61
42289;BME280;30230;47.520;19.016;2023-01-29T08:02:32;99870.28;;;-0.35;91.21
42289;BME280;30230;47.520;19.016;2023-01-29T08:04:32;99884.66;;;-0.15;91.24
42289;BME280;30230;47.520;19.016;2023-01-29T08:06:32;99894.44;;;-0.15;90.78
42289;BME280;30230;47.520;19.016;2023-01-29T08:08:33;99893.72;;;-0.06;90.78
42289;BME280;30230;47.520;19.016;2023-01-29T08:10:34;99894.06;;;-0.11;91.00
42289;BME280;30230;47.520;19.016;2023-01-29T08:12:35;99895.03;;;-0.12;90.99
42289;BME280;30230;47.520;19.016;2023-01-29T08:14:35;99894.09;;;0.01;90.13
42289;BME280;30230;47.520;19.016;2023-01-29T08:16:36;99884.88;;;0.05;91.28
42289;BME280;30230;47.520;19.016;2023-01-29T08:18:37;99880.66;;;0.13;91.03
42289;BME280;30230;47.520;19.016;2023-01-29T08:20:37;99879.81;;;0.13;90.06
42289;BME280;30230;47.520;19.016;2023-01-29T08:22:38;99868.56;;;0.20;89.13
42289;BME280;30230;47.520;19.016;2023-01-29T08:24:38;99891.53;;;0.21;87.99
42289;BME280;30230;47.520;19.016;2023-01-29T08:26:39;99898.38;;;0.35;87.46
42289;BME280;30230;47.520;19.016;2023-01-29T08:28:39;99896.84;;;0.21;87.33
42289;BME280;30230;47.520;19.016;2023-01-29T08:30:40;99910.72;;;0.25;87.49
42289;BME280;30230;47.520;19.016;2023-01-29T08:32:40;99892.84;;;0.27;87.33
42289;BME280;30230;47.520;19.016;2023-01-29T08:34:41;99899.84;;;0.28;86.16
42289;BME280;30230;47.520;19.016;2023-01-29T08:36:41;99905.41;;;0.14;87.99
42289;BME280;30230;47.520;19.016;2023-01-29T08:38:41;99906.28;;;0.03;89.03
42289;BME280;30230;47.520;19.016;2023-01-29T08:40:42;99910.38;;;-0.04;88.76
42289;BME280;30230;47.520;19.016;2023-01-29T08:42:43;99917.38;;;-0.03;89.29
42289;BME280;30230;47.520;19.016;2023-01-29T08:44:43;99921.59;;;0.22;85.71
42289;BME280;30230;47.520;19.016;2023-01-29T08:46:44;99920.25;;;0.05;86.66
42289;BME280;30230;47.520;19.016;2023-01-29T08:48:44;99916.19;;;-0.10;87.25
42289;BME280;30230;47.520;19.016;2023-01-29T08:50:44;99937.44;;;0.01;86.47
42289;BME280;30230;47.520;19.016;2023-01-29T08:52:45;99938.63;;;-0.03;86.51
42289;BME280;30230;47.520;19.016;2023-01-29T08:54:46;99945.13;;;-0.07;86.31
42289;BME280;30230;47.520;19.016;2023-01-29T08:56:46;99941.28;;;-0.03;86.02
42289;BME280;30230;47.520;19.016;2023-01-29T08:58:47;99937.16;;;0.04;85.77
42289;BME280;30230;47.520;19.016;2023-01-29T09:00:47;99948.28;;;-0.02;86.60
42289;BME280;30230;47.520;19.016;2023-01-29T09:02:48;99948.16;;;-0.01;87.34
42289;BME280;30230;47.520;19.016;2023-01-29T09:04:48;99928.47;;;0.47;97.90
42289;BME280;30230;47.520;19.016;2023-01-29T09:06:49;99945.72;;;0.41;86.62
42289;BME280;30230;47.520;19.016;2023-01-29T09:08:49;99947.06;;;0.47;84.41
42289;BME280;30230;47.520;19.016;2023-01-29T09:10:49;99940.53;;;0.40;84.13
42289;BME280;30230;47.520;19.016;2023-01-29T09:12:50;99943.56;;;0.24;84.01
42289;BME280;30230;47.520;19.016;2023-01-29T09:14:50;99942.97;;;0.09;84.76
42289;BME280;30230;47.520;19.016;2023-01-29T09:16:51;99952.88;;;0.07;84.61
42289;BME280;30230;47.520;19.016;2023-01-29T09:18:52;99946.38;;;0.11;84.32
42289;BME280;30230;47.520;19.016;2023-01-29T09:20:52;99945.38;;;0.01;84.70
42289;BME280;30230;47.520;19.016;2023-01-29T09:22:52;99942.72;;;0.23;84.18
42289;BME280;30230;47.520;19.016;2023-01-29T09:24:55;99939.34;;;0.10;84.20
42289;BME280;30230;47.520;19.016;2023-01-29T09:26:56;99941.41;;;0.07;83.60
42289;BME280;30230;47.520;19.016;2023-01-29T09:28:56;99949.47;;;0.05;84.38
42289;BME280;30230;47.520;19.016;2023-01-29T09:31:00;99953.09;;;0.04;85.31
42289;BME280;30230;47.520;19.016;2023-01-29T09:33:01;99948.19;;;0.11;84.79
42289;BME280;30230;47.520;19.016;2023-01-29T09:35:02;99961.31;;;0.12;84.05
42289;BME280;30230;47.520;19.016;2023-01-29T09:37:02;99955.53;;;0.18;83.92
42289;BME280;30230;47.520;19.016;2023-01-29T09:39:02;99961.31;;;0.23;84.17
42289;BME280;30230;47.520;19.016;2023-01-29T09:43:19;99953.97;;;0.27;82.28
42289;BME280;30230;47.520;19.016;2023-01-29T09:45:26;99959.16;;;0.17;82.54
42289;BME280;30230;47.520;19.016;2023-01-29T09:47:28;99964.22;;;0.09;82.28
42289;BME280;30230;47.520;19.016;2023-01-29T09:49:35;99966.28;;;0.06;83.27
42289;BME280;30230;47.520;19.016;2023-01-29T09:51:43;99964.97;;;0.22;80.40
42289;BME280;30230;47.520;19.016;2023-01-29T09:53:53;99958.91;;;0.20;81.24
42289;BME280;30230;47.520;19.016;2023-01-29T09:56:01;99969.91;;;0.16;82.13
42289;BME280;30230;47.520;19.016;2023-01-29T09:58:15;99963.97;;;0.12;83.40
42289;BME280;30230;47.520;19.016;2023-01-29T10:06:04;99970.13;;;0.24;81.63
42289;BME280;30230;47.520;19.016;2023-01-29T10:10:50;99967.34;;;0.25;79.59
42289;BME280;30230;47.520;19.016;2023-01-29T10:13:18;99965.91;;;-0.01;80.90
42289;BME280;30230;47.520;19.016;2023-01-29T10:24:57;99954.56;;;0.08;79.96
42289;BME280;30230;47.520;19.016;2023-01-29T10:26:59;99957.56;;;0.15;79.11
42289;BME280;30230;47.520;19.016;2023-01-29T10:29:05;99956.25;;;0.20;79.49
42289;BME280;30230;47.520;19.016;2023-01-29T10:31:10;99959.66;;;0.11;80.17
42289;BME280;30230;47.520;19.016;2023-01-29T10:33:16;99963.28;;;0.21;79.69
42289;BME280;30230;47.520;19.016;2023-01-29T10:35:27;99951.66;;;0.22;79.56
42289;BME280;30230;47.520;19.016;2023-01-29T10:37:41;99963.28;;;0.21;79.21
42289;BME280;30230;47.520;19.016;2023-01-29T10:39:41;99957.34;;;0.18;78.53
42289;BME280;30230;47.520;19.016;2023-01-29T10:46:17;99947.47;;;0.31;77.80
42289;BME280;30230;47.520;19.016;2023-01-29T10:50:42;99941.28;;;0.08;77.82
42289;BME280;30230;47.520;19.016;2023-01-29T10:55:26;99947.31;;;0.10;77.04
42289;BME280;30230;47.520;19.016;2023-01-29T11:00:20;99924.63;;;0.06;77.30
42289;BME280;30230;47.520;19.016;2023-01-29T11:02:21;99916.19;;;0.01;78.39
42289;BME280;30230;47.520;19.016;2023-01-29T11:04:21;99914.13;;;0.16;77.33
42289;BME280;30230;47.520;19.016;2023-01-29T11:08:36;99916.53;;;0.19;75.05
42289;BME280;30230;47.520;19.016;2023-01-29T11:11:08;99922.31;;;0.24;75.24
42289;BME280;30230;47.520;19.016;2023-01-29T11:13:13;99915.34;;;0.12;74.29
42289;BME280;30230;47.520;19.016;2023-01-29T11:15:21;99911.22;;;0.08;75.81
42289;BME280;30230;47.520;19.016;2023-01-29T11:17:24;99915.19;;;0.13;75.80
42289;BME280;30230;47.520;19.016;2023-01-29T11:19:40;99904.56;;;0.13;75.68
42289;BME280;30230;47.520;19.016;2023-01-29T11:26:05;99894.41;;;0.30;74.80
42289;BME280;30230;47.520;19.016;2023-01-29T11:28:10;99892.22;;;0.35;74.88
42289;BME280;30230;47.520;19.016;2023-01-29T11:30:24;99887.75;;;0.35;75.28
42289;BME280;30230;47.520;19.016;2023-01-29T11:32:32;99881.09;;;0.52;73.24
42289;BME280;30230;47.520;19.016;2023-01-29T11:34:33;99880.03;;;0.43;72.31
42289;BME280;30230;47.520;19.016;2023-01-29T11:36:36;99883.88;;;0.50;71.60
42289;BME280;30230;47.520;19.016;2023-01-29T11:38:39;99884.53;;;0.32;71.94
42289;BME280;30230;47.520;19.016;2023-01-29T11:40:41;99875.78;;;0.41;72.73
42289;BME280;30230;47.520;19.016;2023-01-29T11:42:42;99863.03;;;0.23;72.69
42289;BME280;30230;47.520;19.016;2023-01-29T11:44:42;99857.22;;;0.30;72.82
42289;BME280;30230;47.520;19.016;2023-01-29T11:46:43;99854.34;;;0.21;72.83
42289;BME280;30230;47.520;19.016;2023-01-29T11:48:49;99853.13;;;0.37;73.34
42289;BME280;30230;47.520;19.016;2023-01-29T11:50:55;99854.44;;;0.42;70.22
42289;BME280;30230;47.520;19.016;2023-01-29T11:53:00;99837.97;;;0.48;69.94
42289;BME280;30230;47.520;19.016;2023-01-29T11:55:04;99847.03;;;0.57;70.71
42289;BME280;30230;47.520;19.016;2023-01-29T11:57:20;99842.41;;;0.59;68.84
42289;BME280;30230;47.520;19.016;2023-01-29T11:59:49;99840.81;;;0.68;67.72
42289;BME280;30230;47.520;19.016;2023-01-29T12:01:49;99844.81;;;0.62;70.58
42289;BME280;30230;47.520;19.016;2023-01-29T12:03:52;99845.66;;;0.63;68.99
42289;BME280;30230;47.520;19.016;2023-01-29T12:05:58;99842.38;;;0.70;69.49
42289;BME280;30230;47.520;19.016;2023-01-29T12:08:01;99848.66;;;0.69;68.45
42289;BME280;30230;47.520;19.016;2023-01-29T12:10:01;99848.47;;;0.50;69.93
42289;BME280;30230;47.520;19.016;2023-01-29T12:12:16;99840.44;;;0.72;68.60
42289;BME280;30230;47.520;19.016;2023-01-29T12:14:28;99848.84;;;0.77;68.44
42289;BME280;30230;47.520;19.016;2023-01-29T12:16:38;99842.66;;;0.88;68.09